Terminal Aerodrome Forecast
Issued by NWS Riverton, WY

Home | Current Version | Previous Version | Text Only | Print | Product List | Glossary On
Versions: 1 2 3 4 5 6 7 8 9 10 11 12 13
843
FTUS45 KRIW 281127
TAFRIW
TAF
KRIW 281127Z 2812/2912 32007KT P6SM SCT090
     FM282300 30010KT P6SM SCT080=

USA.gov is the U.S. government's official web portal to all federal, state and local government web resources and services.